createdAt,value
2022-09-28T00:00:14.864Z,94.75
2022-09-28T00:03:16.192Z,94.68
2022-09-28T00:06:20.966Z,94.76
2022-09-28T00:09:22.352Z,94.84
2022-09-28T00:12:23.684Z,94.94
2022-09-28T00:15:25.242Z,94.89
2022-09-28T00:18:26.646Z,94.83
2022-09-28T00:21:30.488Z,94.80
2022-09-28T00:24:31.870Z,94.82
2022-09-28T00:27:33.259Z,95.06
2022-09-28T00:30:34.649Z,95.04
2022-09-28T00:33:35.964Z,95.02
2022-09-28T00:36:37.369Z,95.07
2022-09-28T00:39:39.538Z,95.23
2022-09-28T00:42:40.917Z,95.28
2022-09-28T00:45:43.451Z,95.31
2022-09-28T00:49:02.838Z,95.29
2022-09-28T00:52:06.583Z,95.60
2022-09-28T00:55:16.972Z,95.68
2022-09-28T00:58:23.834Z,95.85
2022-09-28T01:01:26.884Z,96.01
2022-09-28T01:04:30.857Z,95.92
2022-09-28T01:07:34.344Z,95.94
2022-09-28T01:10:35.993Z,95.71
2022-09-28T01:13:39.809Z,95.93
2022-09-28T01:16:41.232Z,96.20
2022-09-28T01:20:46.718Z,96.57
2022-09-28T01:24:13.922Z,96.80
2022-09-28T01:27:20.922Z,96.75
2022-09-28T01:30:22.966Z,96.85
2022-09-28T01:33:28.835Z,96.61
2022-09-28T01:36:38.540Z,96.55
2022-09-28T01:39:45.423Z,96.37
2022-09-28T01:42:53.311Z,96.50
2022-09-28T01:46:13.177Z,96.55
2022-09-28T01:49:43.863Z,96.52
2022-09-28T01:52:58.307Z,96.58
2022-09-28T01:56:11.704Z,96.43
2022-09-28T01:59:25.984Z,96.35
2022-09-28T02:02:34.188Z,96.45
2022-09-28T02:05:39.209Z,96.56
2022-09-28T02:08:49.180Z,96.57
2022-09-28T02:11:58.896Z,97.01
2022-09-28T02:15:27.172Z,97.35
2022-09-28T02:18:28.874Z,97.36
2022-09-28T02:22:11.741Z,96.64
2022-09-28T02:25:24.401Z,96.84
2022-09-28T02:28:26.326Z,96.94
2022-09-28T02:31:28.188Z,97.01
2022-09-28T02:34:29.658Z,97.02
2022-09-28T02:37:31.109Z,96.97
2022-09-28T02:40:36.301Z,96.94
2022-09-28T02:43:52.706Z,96.80
2022-09-28T02:47:03.778Z,96.69
2022-09-28T02:50:10.498Z,96.87
2022-09-28T02:53:14.802Z,96.92
2022-09-28T02:56:26.835Z,96.79
2022-09-28T02:59:48.826Z,96.95
2022-09-28T03:03:03.999Z,96.93
2022-09-28T03:06:14.855Z,97.07
2022-09-28T03:09:25.012Z,97.35
2022-09-28T03:12:27.287Z,97.57
2022-09-28T03:15:31.013Z,97.41
2022-09-28T03:18:32.372Z,97.40
2022-09-28T03:21:33.720Z,97.53
2022-09-28T03:24:35.095Z,97.65
2022-09-28T03:27:36.958Z,97.54
2022-09-28T03:30:38.387Z,97.67
2022-09-28T03:33:40.123Z,97.89
2022-09-28T03:36:41.539Z,97.72
2022-09-28T03:39:43.323Z,97.99
2022-09-28T03:42:44.685Z,97.89
2022-09-28T03:45:57.014Z,98.15
2022-09-28T03:48:59.014Z,98.46
2022-09-28T03:52:00.892Z,98.60
2022-09-28T03:55:02.380Z,98.67
2022-09-28T03:58:03.747Z,98.77
2022-09-28T04:01:09.257Z,98.69
2022-09-28T04:04:14.121Z,98.79
2022-09-28T04:07:15.588Z,98.74
2022-09-28T04:10:17.681Z,98.82
2022-09-28T04:13:19.089Z,98.79
2022-09-28T04:16:20.935Z,98.80
2022-09-28T04:19:33.376Z,98.85
2022-09-28T04:22:54.986Z,98.94
2022-09-28T04:25:56.499Z,98.78
2022-09-28T04:28:59.145Z,98.73
2022-09-28T04:32:03.156Z,98.54
2022-09-28T04:35:12.029Z,98.46
2022-09-28T04:38:13.378Z,98.57
2022-09-28T04:41:15.703Z,98.55
2022-09-28T04:44:17.220Z,98.63
2022-09-28T04:47:20.426Z,98.48
2022-09-28T04:50:30.518Z,98.35
2022-09-28T04:53:48.183Z,98.37
2022-09-28T05:05:46.974Z,98.70
2022-09-28T05:09:04.051Z,98.57
2022-09-28T05:12:05.456Z,98.45
2022-09-28T05:15:07.085Z,98.21
2022-09-28T05:18:08.834Z,98.35
2022-09-28T05:21:22.486Z,98.21
2022-09-28T05:24:24.220Z,98.06
2022-09-28T05:27:26.803Z,98.18
2022-09-28T05:30:39.341Z,98.23
2022-09-28T05:33:58.536Z,98.22
2022-09-28T05:37:00.489Z,98.05
2022-09-28T05:40:02.491Z,98.06
2022-09-28T05:43:04.061Z,97.97
2022-09-28T05:46:06.834Z,97.96
2022-09-28T05:49:11.091Z,97.88
2022-09-28T05:52:12.436Z,97.63
2022-09-28T05:55:14.154Z,97.47
2022-09-28T05:58:16.907Z,97.45
2022-09-28T06:01:18.394Z,97.51
2022-09-28T06:04:20.518Z,97.16
2022-09-28T06:07:23.000Z,97.22
2022-09-28T06:10:28.480Z,97.03
2022-09-28T06:13:33.873Z,96.22
2022-09-28T06:16:36.636Z,95.96
2022-09-28T06:19:41.014Z,95.08
2022-09-28T06:22:58.415Z,94.50
2022-09-28T06:25:59.830Z,94.22
2022-09-28T06:29:01.279Z,93.99
2022-09-28T06:32:02.721Z,94.86
2022-09-28T06:35:04.418Z,94.86
2022-09-28T06:38:05.931Z,94.16
2022-09-28T06:41:08.839Z,94.85
2022-09-28T06:44:10.231Z,95.21
2022-09-28T06:47:30.043Z,95.91
2022-09-28T06:50:51.329Z,95.20
2022-09-28T06:54:14.502Z,95.31
2022-09-28T06:57:24.799Z,95.47
2022-09-28T07:00:27.832Z,95.73
2022-09-28T07:03:29.870Z,95.54
2022-09-28T07:06:54.162Z,95.51
2022-09-28T07:10:25.936Z,95.57
2022-09-28T07:13:50.905Z,95.94
2022-09-28T07:17:10.985Z,95.76
2022-09-28T07:20:19.060Z,94.83
2022-09-28T07:23:21.729Z,94.63
2022-09-28T07:26:49.031Z,94.29
2022-09-28T07:30:14.809Z,94.73
2022-09-28T07:33:50.054Z,95.11
2022-09-28T07:36:58.862Z,94.70
2022-09-28T07:40:00.674Z,93.80
2022-09-28T07:43:05.978Z,92.55
2022-09-28T07:46:09.024Z,92.00
2022-09-28T07:49:12.368Z,91.92
2022-09-28T07:52:32.441Z,92.37
2022-09-28T07:55:41.190Z,92.84
2022-09-28T07:59:00.925Z,91.91
2022-09-28T08:02:31.320Z,91.46
2022-09-28T08:05:32.727Z,91.03
2022-09-28T08:08:34.774Z,91.08
2022-09-28T08:11:36.398Z,89.92
2022-09-28T08:14:57.763Z,89.47
2022-09-28T08:18:17.891Z,89.43
2022-09-28T08:21:22.113Z,89.80
2022-09-28T08:24:23.512Z,89.46
2022-09-28T08:27:25.155Z,89.01
2022-09-28T08:30:26.690Z,88.35
2022-09-28T08:33:40.192Z,87.80
2022-09-28T08:36:59.916Z,88.84
2022-09-28T08:40:25.340Z,88.81
2022-09-28T08:44:00.216Z,88.82
2022-09-28T08:47:24.584Z,87.35
2022-09-28T08:50:51.380Z,87.61
2022-09-28T08:54:08.110Z,86.93
2022-09-28T08:57:33.212Z,87.12
2022-09-28T09:00:52.133Z,87.23
2022-09-28T09:03:54.765Z,87.36
2022-09-28T09:07:36.117Z,87.71
2022-09-28T09:10:51.996Z,87.20
2022-09-28T09:14:28.249Z,86.81
2022-09-28T09:17:40.465Z,86.05
2022-09-28T09:20:57.996Z,85.97
2022-09-28T09:24:26.985Z,84.78
2022-09-28T09:27:40.683Z,84.94
2022-09-28T09:31:04.222Z,85.37
2022-09-28T09:34:27.155Z,84.36
2022-09-28T09:38:25.257Z,83.60
2022-09-28T09:42:18.494Z,82.29
2022-09-28T09:46:16.912Z,81.50
2022-09-28T09:49:59.034Z,81.53
2022-09-28T09:53:06.946Z,80.12
2022-09-28T09:56:16.699Z,80.73
2022-09-28T09:59:37.680Z,81.37
2022-09-28T10:02:48.408Z,80.17
2022-09-28T10:06:09.171Z,79.77
2022-09-28T10:09:20.403Z,78.76
2022-09-28T10:12:23.437Z,77.85
2022-09-28T10:15:31.046Z,77.86
2022-09-28T10:18:47.683Z,76.96
2022-09-28T10:22:14.624Z,76.95
2022-09-28T10:25:17.311Z,75.49
2022-09-28T10:28:29.500Z,75.50
2022-09-28T10:31:38.473Z,74.32
2022-09-28T10:34:48.835Z,74.23
2022-09-28T10:37:59.321Z,74.03
2022-09-28T10:41:23.680Z,73.03
2022-09-28T10:44:34.232Z,73.49
2022-09-28T10:47:44.687Z,72.95
2022-09-28T10:50:59.781Z,73.39
2022-09-28T10:54:02.609Z,74.64
2022-09-28T10:57:28.124Z,74.72
2022-09-28T11:00:42.907Z,75.22
2022-09-28T11:03:56.372Z,75.15
2022-09-28T11:06:57.857Z,75.79
2022-09-28T11:10:01.738Z,75.52
2022-09-28T11:13:09.062Z,74.87
2022-09-28T11:16:21.117Z,73.64
2022-09-28T11:19:22.622Z,73.41
2022-09-28T11:22:38.519Z,73.14
2022-09-28T11:25:42.211Z,72.43
2022-09-28T11:28:51.386Z,71.15
2022-09-28T11:32:04.775Z,69.75
2022-09-28T11:35:56.138Z,67.41
2022-09-28T11:39:00.494Z,66.84
2022-09-28T11:42:52.987Z,71.17
2022-09-28T11:46:08.310Z,70.83
2022-09-28T11:49:27.198Z,69.88
2022-09-28T11:52:32.267Z,68.91
2022-09-28T11:55:40.964Z,68.56
2022-09-28T11:58:57.300Z,67.49
2022-09-28T12:02:22.194Z,68.66
2022-09-28T12:05:34.800Z,69.28
2022-09-28T12:08:51.349Z,68.77
2022-09-28T12:12:22.578Z,67.49
2022-09-28T12:15:38.183Z,66.54
2022-09-28T12:19:02.151Z,65.76
2022-09-28T12:22:13.555Z,66.60
2022-09-28T12:25:20.904Z,67.34
2022-09-28T12:28:38.211Z,67.07
2022-09-28T12:31:56.564Z,67.73
2022-09-28T12:34:58.196Z,67.73
2022-09-28T12:38:29.709Z,65.71
2022-09-28T12:41:59.578Z,64.67
2022-09-28T12:45:23.442Z,62.63
2022-09-28T12:48:42.797Z,64.10
2022-09-28T12:51:50.209Z,63.71
2022-09-28T12:55:19.371Z,62.83
2022-09-28T12:58:45.574Z,63.56
2022-09-28T13:02:05.445Z,63.32
2022-09-28T13:05:41.030Z,62.08
2022-09-28T13:08:45.126Z,64.53
2022-09-28T13:11:49.341Z,64.92
2022-09-28T13:15:02.263Z,63.16
2022-09-28T13:18:26.237Z,64.46
2022-09-28T13:21:37.558Z,65.37
2022-09-28T13:24:41.080Z,65.71
2022-09-28T13:27:47.978Z,66.22
2022-09-28T13:30:51.188Z,67.19
2022-09-28T13:33:53.479Z,65.88
2022-09-28T13:37:16.603Z,64.27
2022-09-28T13:40:18.047Z,64.78
2022-09-28T13:43:31.503Z,64.05
2022-09-28T13:46:35.626Z,63.54
2022-09-28T13:49:55.939Z,65.47
2022-09-28T13:53:09.435Z,64.51
2022-09-28T13:56:19.587Z,62.84
2022-09-28T13:59:29.939Z,64.55
2022-09-28T14:02:52.835Z,62.93
2022-09-28T14:06:00.019Z,64.44
2022-09-28T14:09:13.610Z,63.64
2022-09-28T14:12:53.920Z,62.30
2022-09-28T14:16:18.284Z,64.10
2022-09-28T14:19:31.455Z,63.61
2022-09-28T14:22:37.470Z,63.41
2022-09-28T14:25:45.073Z,63.54
2022-09-28T14:28:52.389Z,63.49
2022-09-28T14:31:55.757Z,63.40
2022-09-28T14:35:00.937Z,63.70
2022-09-28T14:38:14.850Z,63.83
2022-09-28T14:41:16.127Z,64.13
2022-09-28T14:44:17.481Z,64.68
2022-09-28T14:47:33.932Z,64.05
2022-09-28T14:50:35.309Z,64.23
2022-09-28T14:53:38.646Z,64.24
2022-09-28T14:56:44.706Z,64.68
2022-09-28T14:59:46.651Z,65.60
2022-09-28T15:02:51.186Z,65.94
2022-09-28T15:05:52.723Z,66.54
2022-09-28T15:08:54.227Z,66.53
2022-09-28T15:12:02.770Z,65.94
2022-09-28T15:15:07.649Z,65.84
2022-09-28T15:18:48.123Z,65.67
2022-09-28T15:21:50.370Z,65.81
2022-09-28T15:25:01.393Z,65.84
2022-09-28T15:28:18.023Z,66.92
2022-09-28T15:31:22.277Z,67.51
2022-09-28T15:34:26.762Z,67.84
2022-09-28T15:37:33.155Z,68.52
2022-09-28T15:40:38.562Z,69.38
2022-09-28T15:43:40.063Z,70.02
2022-09-28T15:46:48.033Z,70.49
2022-09-28T15:49:59.335Z,70.66
2022-09-28T15:53:04.382Z,71.38
2022-09-28T15:56:06.456Z,71.84
2022-09-28T15:59:07.751Z,72.23
2022-09-28T16:02:12.447Z,72.67
2022-09-28T16:05:31.531Z,72.88
2022-09-28T16:08:35.972Z,73.80
2022-09-28T16:11:39.348Z,73.92
2022-09-28T16:14:40.644Z,75.02
2022-09-28T16:17:42.084Z,75.28
2022-09-28T16:20:46.100Z,75.28
2022-09-28T16:23:52.938Z,75.43
2022-09-28T16:27:03.132Z,76.01
2022-09-28T16:30:16.937Z,76.44
2022-09-28T16:33:30.345Z,76.87
2022-09-28T16:36:43.487Z,77.30
2022-09-28T16:39:44.821Z,78.44
2022-09-28T16:42:49.045Z,78.83
2022-09-28T16:45:50.777Z,79.41
2022-09-28T16:48:52.145Z,79.45
2022-09-28T16:51:54.063Z,80.07
2022-09-28T16:54:55.401Z,80.25
2022-09-28T16:57:56.886Z,80.43
2022-09-28T17:00:59.201Z,80.72
2022-09-28T17:04:00.697Z,81.14
2022-09-28T17:07:02.068Z,80.89
2022-09-28T17:10:14.780Z,80.44
2022-09-28T17:13:16.122Z,81.04
2022-09-28T17:16:42.653Z,80.68
2022-09-28T17:19:43.815Z,81.15
2022-09-28T17:22:45.176Z,81.51
2022-09-28T17:25:47.574Z,81.96
2022-09-28T17:28:48.929Z,82.33
2022-09-28T17:31:50.259Z,82.98
2022-09-28T17:35:00.900Z,82.86
2022-09-28T17:38:02.555Z,82.67
2022-09-28T17:41:04.055Z,82.56
2022-09-28T17:44:05.433Z,82.87
2022-09-28T17:47:06.788Z,82.99
2022-09-28T17:50:20.183Z,83.29
2022-09-28T17:53:21.528Z,83.32
2022-09-28T17:56:29.712Z,82.86
2022-09-28T17:59:33.188Z,83.49
2022-09-28T18:02:34.591Z,83.58
2022-09-28T18:05:37.250Z,83.50
2022-09-28T18:08:38.758Z,83.83
2022-09-28T18:11:43.166Z,83.44
2022-09-28T18:14:44.489Z,83.16
2022-09-28T18:17:45.855Z,83.71
2022-09-28T18:20:47.243Z,83.86
2022-09-28T18:23:48.578Z,83.47
2022-09-28T18:26:49.893Z,83.51
2022-09-28T18:29:51.221Z,83.42
2022-09-28T18:32:52.670Z,83.61
2022-09-28T18:35:55.395Z,83.51
2022-09-28T18:38:56.714Z,83.26
2022-09-28T18:41:58.074Z,83.47
2022-09-28T18:44:59.393Z,83.65
2022-09-28T18:48:00.821Z,84.01
2022-09-28T18:51:03.151Z,84.68
2022-09-28T18:54:04.519Z,84.97
2022-09-28T18:57:05.850Z,85.57
2022-09-28T19:00:11.364Z,85.42
2022-09-28T19:03:12.829Z,85.32
2022-09-28T19:06:15.794Z,85.24
2022-09-28T19:09:19.787Z,85.39
2022-09-28T19:12:21.240Z,85.38
2022-09-28T19:15:22.920Z,85.46
2022-09-28T19:18:24.243Z,85.59
2022-09-28T19:21:25.763Z,85.64
2022-09-28T19:24:27.452Z,86.03
2022-09-28T19:27:28.779Z,85.95
2022-09-28T19:30:30.100Z,86.04
2022-09-28T19:33:32.134Z,86.67
2022-09-28T19:36:33.463Z,86.98
2022-09-28T19:39:34.799Z,87.05
2022-09-28T19:42:36.177Z,87.36
2022-09-28T19:45:37.508Z,87.29
2022-09-28T19:48:38.865Z,87.47
2022-09-28T19:52:01.665Z,87.17
2022-09-28T19:55:03.227Z,87.31
2022-09-28T19:58:04.544Z,87.02
2022-09-28T20:01:06.813Z,86.75
2022-09-28T20:04:08.493Z,86.70
2022-09-28T20:07:09.833Z,86.77
2022-09-28T20:10:11.275Z,87.18
2022-09-28T20:13:13.733Z,87.47
2022-09-28T20:16:17.629Z,87.44
2022-09-28T20:19:19.103Z,87.30
2022-09-28T20:22:20.468Z,87.39
2022-09-28T20:25:21.808Z,87.56
2022-09-28T20:28:23.194Z,87.69
2022-09-28T20:31:25.139Z,87.52
2022-09-28T20:34:26.687Z,87.66
2022-09-28T20:37:28.010Z,87.94
2022-09-28T20:40:29.388Z,87.91
2022-09-28T20:43:30.839Z,87.83
2022-09-28T20:46:32.371Z,87.89
2022-09-28T20:49:33.815Z,88.28
2022-09-28T20:52:35.273Z,88.28
2022-09-28T20:55:36.606Z,88.36
2022-09-28T20:58:39.310Z,88.43
2022-09-28T21:01:40.853Z,88.31
2022-09-28T21:04:42.210Z,88.43
2022-09-28T21:07:43.535Z,88.31
2022-09-28T21:10:44.855Z,88.42
2022-09-28T21:13:47.329Z,88.48
2022-09-28T21:16:48.668Z,88.53
2022-09-28T21:19:50.013Z,88.34
2022-09-28T21:22:51.339Z,88.39
2022-09-28T21:26:10.332Z,88.05
2022-09-28T21:29:14.215Z,88.40
2022-09-28T21:32:15.528Z,88.36
2022-09-28T21:35:16.865Z,88.42
2022-09-28T21:38:18.190Z,88.39
2022-09-28T21:41:19.516Z,88.39
2022-09-28T21:44:21.016Z,88.53
2022-09-28T21:47:22.507Z,88.58
2022-09-28T21:50:25.873Z,88.20
2022-09-28T21:53:28.365Z,88.67
2022-09-28T21:56:29.721Z,88.89
2022-09-28T21:59:31.041Z,88.60
2022-09-28T22:02:32.424Z,88.53
2022-09-28T22:05:33.747Z,88.81
2022-09-28T22:08:36.385Z,88.53
2022-09-28T22:11:37.739Z,88.78
2022-09-28T22:14:39.071Z,88.70
2022-09-28T22:17:40.462Z,88.62
2022-09-28T22:20:41.808Z,88.43
2022-09-28T22:23:43.222Z,88.16
2022-09-28T22:26:44.558Z,88.10
2022-09-28T22:29:45.897Z,88.21
2022-09-28T22:32:47.222Z,88.27
2022-09-28T22:35:48.694Z,88.17
2022-09-28T22:38:50.204Z,88.10
2022-09-28T22:41:51.915Z,88.19
2022-09-28T22:44:53.238Z,88.06
2022-09-28T22:47:54.569Z,88.10
2022-09-28T22:50:55.980Z,88.04
2022-09-28T22:53:57.946Z,87.99
2022-09-28T22:56:59.295Z,88.35
2022-09-28T23:00:00.843Z,88.43
2022-09-28T23:03:02.238Z,88.53
2022-09-28T23:06:03.775Z,88.35
2022-09-28T23:09:05.199Z,88.88
2022-09-28T23:12:06.552Z,88.87
2022-09-28T23:15:08.670Z,88.97
2022-09-28T23:18:10.234Z,89.12
2022-09-28T23:21:14.307Z,89.24
2022-09-28T23:24:15.687Z,89.53
2022-09-28T23:27:17.040Z,89.55
2022-09-28T23:30:19.580Z,89.35
2022-09-28T23:33:21.332Z,89.29
2022-09-28T23:36:22.660Z,89.55
2022-09-28T23:39:24.037Z,89.54
2022-09-28T23:42:25.393Z,89.50
2022-09-28T23:45:26.757Z,89.45
2022-09-28T23:48:28.118Z,89.59
2022-09-28T23:51:29.458Z,89.74
2022-09-28T23:54:30.829Z,89.46
2022-09-28T23:57:32.185Z,89.96
